createdAt,value
2019-02-19T00:02:39.893Z,11.57
2019-02-19T00:05:43.328Z,12.63
2019-02-19T00:08:46.745Z,14.70
2019-02-19T00:11:50.181Z,13.10
2019-02-19T00:14:53.602Z,13.87
2019-02-19T00:17:57.046Z,14.83
2019-02-19T00:21:00.461Z,15.53
2019-02-19T00:24:03.893Z,12.97
2019-02-19T00:27:07.324Z,13.90
2019-02-19T00:30:10.804Z,12.60
2019-02-19T00:33:14.241Z,12.30
2019-02-19T00:36:17.680Z,16.20
2019-02-19T00:39:21.121Z,12.77
2019-02-19T00:42:24.542Z,12.83
2019-02-19T00:45:27.963Z,13.70
2019-02-19T00:48:31.384Z,13.50
2019-02-19T00:51:34.811Z,14.87
2019-02-19T00:54:38.225Z,14.47
2019-02-19T00:57:41.659Z,14.33
2019-02-19T01:00:45.105Z,14.80
2019-02-19T01:03:48.520Z,11.27
2019-02-19T01:06:51.991Z,14.30
2019-02-19T01:09:55.501Z,12.70
2019-02-19T01:12:58.975Z,15.23
2019-02-19T01:16:02.413Z,13.70
2019-02-19T01:19:05.858Z,13.00
2019-02-19T01:22:09.563Z,11.77
2019-02-19T01:25:12.968Z,12.17
2019-02-19T01:28:16.404Z,11.63
2019-02-19T01:31:19.828Z,16.80
2019-02-19T01:34:23.265Z,11.03
2019-02-19T01:37:26.680Z,13.10
2019-02-19T01:40:30.107Z,12.47
2019-02-19T01:43:33.549Z,13.10
2019-02-19T01:46:36.957Z,14.27
2019-02-19T01:49:40.424Z,13.17
2019-02-19T01:52:43.833Z,13.90
2019-02-19T01:55:47.260Z,12.37
2019-02-19T01:58:50.692Z,13.13
2019-02-19T02:01:54.110Z,12.30
2019-02-19T02:04:57.544Z,13.27
2019-02-19T02:08:00.958Z,13.53
2019-02-19T02:11:04.384Z,13.00
2019-02-19T02:14:07.795Z,13.13
2019-02-19T02:17:11.228Z,11.80
2019-02-19T02:20:14.672Z,11.67
2019-02-19T02:23:18.091Z,15.80
2019-02-19T02:26:21.507Z,12.83
2019-02-19T02:29:24.947Z,16.70
2019-02-19T02:32:28.367Z,11.37
2019-02-19T02:35:31.795Z,12.40
2019-02-19T02:38:35.236Z,13.07
2019-02-19T02:41:38.658Z,14.37
2019-02-19T02:44:42.089Z,13.17
2019-02-19T02:47:45.508Z,13.30
2019-02-19T02:50:48.965Z,15.60
2019-02-19T02:53:52.404Z,15.37
2019-02-19T02:56:55.811Z,13.50
2019-02-19T02:59:59.249Z,11.87
2019-02-19T03:03:02.685Z,13.90
2019-02-19T03:06:07.769Z,16.73
2019-02-19T03:09:11.183Z,13.03
2019-02-19T03:12:14.623Z,13.37
2019-02-19T03:15:18.097Z,12.53
2019-02-19T03:18:21.540Z,15.83
2019-02-19T03:21:24.980Z,12.73
2019-02-19T03:24:28.473Z,13.53
2019-02-19T03:27:31.884Z,12.67
2019-02-19T03:30:35.326Z,11.70
2019-02-19T03:33:38.749Z,13.47
2019-02-19T03:36:42.173Z,13.53
2019-02-19T03:39:45.588Z,12.60
2019-02-19T03:42:49.016Z,16.70
2019-02-19T03:45:52.456Z,11.53
2019-02-19T03:48:55.871Z,11.17
2019-02-19T03:51:59.318Z,11.47
2019-02-19T03:55:02.738Z,11.20
2019-02-19T03:58:06.193Z,17.70
2019-02-19T04:01:09.640Z,14.87
2019-02-19T04:04:13.056Z,14.17
2019-02-19T04:07:16.485Z,13.63
2019-02-19T04:10:19.917Z,12.87
2019-02-19T04:13:23.332Z,11.77
2019-02-19T04:16:26.757Z,12.33
2019-02-19T04:19:30.192Z,14.83
2019-02-19T04:22:33.620Z,17.33
2019-02-19T04:25:37.044Z,15.53
2019-02-19T04:28:40.471Z,16.10
2019-02-19T04:31:43.888Z,11.77
2019-02-19T04:34:47.345Z,15.00
2019-02-19T04:37:50.836Z,13.60
2019-02-19T04:40:54.259Z,15.13
2019-02-19T04:43:57.670Z,16.00
2019-02-19T04:47:01.104Z,14.53
2019-02-19T04:50:06.665Z,13.00
2019-02-19T04:53:10.138Z,12.43
2019-02-19T04:56:13.576Z,15.07
2019-02-19T04:59:16.983Z,12.30
2019-02-19T05:02:20.420Z,16.00
2019-02-19T05:05:23.834Z,16.10
2019-02-19T05:08:27.273Z,12.63
2019-02-19T05:11:30.687Z,14.60
2019-02-19T05:14:34.134Z,13.07
2019-02-19T05:17:37.547Z,12.27
2019-02-19T05:20:46.833Z,14.23
2019-02-19T05:23:50.240Z,14.07
2019-02-19T05:26:53.685Z,12.27
2019-02-19T05:29:57.117Z,14.40
2019-02-19T05:33:00.574Z,12.53
2019-02-19T05:36:03.984Z,11.57
2019-02-19T05:39:07.495Z,11.53
2019-02-19T05:42:10.914Z,11.80
2019-02-19T05:45:14.340Z,13.27
2019-02-19T05:48:17.754Z,11.27
2019-02-19T05:51:21.197Z,11.53
2019-02-19T05:54:24.613Z,15.40
2019-02-19T05:57:28.034Z,10.53
2019-02-19T06:00:31.441Z,13.97
2019-02-19T06:03:34.867Z,10.27
2019-02-19T06:06:38.312Z,12.97
2019-02-19T06:09:41.866Z,12.90
2019-02-19T06:12:45.439Z,11.40
2019-02-19T06:15:48.862Z,13.77
2019-02-19T06:18:52.314Z,11.73
2019-02-19T06:21:55.727Z,14.50
2019-02-19T06:24:59.147Z,11.90
2019-02-19T06:28:02.566Z,11.27
2019-02-19T06:31:05.996Z,14.33
2019-02-19T06:34:09.404Z,12.80
2019-02-19T06:37:12.832Z,12.00
2019-02-19T06:40:24.511Z,12.80
2019-02-19T06:43:27.924Z,12.17
2019-02-19T06:46:31.379Z,12.50
2019-02-19T06:49:34.780Z,11.90
2019-02-19T06:52:38.220Z,14.13
2019-02-19T06:55:41.628Z,14.70
2019-02-19T06:58:45.063Z,13.67
2019-02-19T07:01:56.173Z,12.83
2019-02-19T07:04:59.857Z,14.77
2019-02-19T07:08:03.363Z,12.57
2019-02-19T07:11:06.814Z,12.97
2019-02-19T07:14:10.232Z,14.83
2019-02-19T07:17:15.636Z,12.73
2019-02-19T07:20:18.813Z,13.07
2019-02-19T07:23:22.260Z,14.70
2019-02-19T07:26:25.748Z,13.53
2019-02-19T07:29:29.183Z,16.00
2019-02-19T07:32:32.634Z,15.53
2019-02-19T07:35:36.044Z,16.00
2019-02-19T07:38:39.508Z,14.33
2019-02-19T07:41:42.918Z,15.20
2019-02-19T07:44:46.373Z,20.13
2019-02-19T07:47:49.786Z,16.13
2019-02-19T07:50:53.227Z,16.43
2019-02-19T07:53:56.647Z,15.03
2019-02-19T07:57:00.085Z,18.47
2019-02-19T08:00:04.310Z,18.90
2019-02-19T08:03:07.719Z,17.30
2019-02-19T08:06:11.168Z,19.83
2019-02-19T08:09:14.579Z,18.67
2019-02-19T08:12:18.026Z,18.60
2019-02-19T08:15:21.428Z,19.10
2019-02-19T08:18:25.297Z,19.67
2019-02-19T08:21:28.852Z,22.10
2019-02-19T08:24:32.295Z,19.23
2019-02-19T08:27:35.703Z,22.83
2019-02-19T08:30:39.144Z,17.63
2019-02-19T08:33:42.556Z,20.83
2019-02-19T08:36:46.007Z,21.37
2019-02-19T08:39:49.428Z,23.97
2019-02-19T08:42:52.871Z,23.33
2019-02-19T08:45:56.273Z,21.30
2019-02-19T08:48:59.716Z,24.03
2019-02-19T08:52:03.136Z,21.33
2019-02-19T08:55:07.454Z,25.07
2019-02-19T08:58:10.895Z,21.17
2019-02-19T09:01:14.304Z,21.70
2019-02-19T09:04:17.732Z,23.63
2019-02-19T09:07:21.140Z,21.13
2019-02-19T09:10:24.583Z,21.50
2019-02-19T09:13:28.004Z,22.37
2019-02-19T09:16:31.464Z,21.47
2019-02-19T09:19:34.892Z,21.57
2019-02-19T09:22:38.388Z,23.20
2019-02-19T09:25:41.840Z,22.87
2019-02-19T09:28:45.248Z,20.27
2019-02-19T09:31:48.684Z,20.83
2019-02-19T09:34:52.739Z,19.43
2019-02-19T09:37:56.219Z,21.00
2019-02-19T09:40:59.644Z,26.00
2019-02-19T09:44:03.080Z,20.47
2019-02-19T09:47:06.539Z,19.27
2019-02-19T09:50:10.648Z,21.80
2019-02-19T09:53:14.078Z,19.00
2019-02-19T09:56:17.516Z,20.90
2019-02-19T09:59:20.945Z,21.20
2019-02-19T10:02:24.380Z,19.77
2019-02-19T10:05:27.798Z,20.87
2019-02-19T10:08:31.243Z,18.03
2019-02-19T10:11:34.657Z,21.00
2019-02-19T10:14:38.093Z,22.17
2019-02-19T10:17:41.504Z,22.43
2019-02-19T10:20:44.956Z,17.40
2019-02-19T10:23:48.368Z,18.03
2019-02-19T10:26:51.800Z,19.77
2019-02-19T10:29:55.260Z,19.23
2019-02-19T10:32:58.676Z,18.97
2019-02-19T10:36:02.130Z,20.43
2019-02-19T10:39:08.258Z,17.43
2019-02-19T10:42:11.708Z,17.13
2019-02-19T10:45:17.738Z,17.03
2019-02-19T10:48:21.191Z,16.23
2019-02-19T10:51:24.604Z,17.13
2019-02-19T10:54:28.048Z,18.07
2019-02-19T10:57:31.464Z,17.97
2019-02-19T11:00:34.901Z,16.53
2019-02-19T11:03:38.316Z,15.40
2019-02-19T11:06:41.780Z,16.73
2019-02-19T11:09:45.193Z,16.17
2019-02-19T11:12:48.643Z,16.73
2019-02-19T11:15:52.065Z,17.60
2019-02-19T11:18:55.512Z,18.90
2019-02-19T11:21:58.954Z,15.23
2019-02-19T11:25:02.383Z,16.23
2019-02-19T11:28:05.821Z,16.37
2019-02-19T11:31:09.245Z,16.00
2019-02-19T11:34:12.753Z,17.43
2019-02-19T11:37:16.192Z,16.03
2019-02-19T11:40:19.615Z,14.80
2019-02-19T11:43:23.040Z,14.67
2019-02-19T11:46:26.497Z,18.93
2019-02-19T11:49:29.908Z,15.90
2019-02-19T11:52:36.369Z,15.00
2019-02-19T11:55:39.825Z,14.83
2019-02-19T11:58:43.224Z,18.13
2019-02-19T12:01:46.862Z,15.60
2019-02-19T12:04:50.274Z,16.30
2019-02-19T12:07:53.724Z,20.83
2019-02-19T12:10:57.129Z,16.70
2019-02-19T12:14:00.569Z,20.13
2019-02-19T12:17:03.985Z,15.57
2019-02-19T12:20:10.497Z,15.43
2019-02-19T12:23:13.917Z,14.70
2019-02-19T12:26:17.397Z,15.27
2019-02-19T12:29:20.865Z,17.77
2019-02-19T12:32:24.301Z,13.03
2019-02-19T12:35:27.748Z,19.27
2019-02-19T12:38:31.164Z,13.47
2019-02-19T12:41:34.591Z,12.00
2019-02-19T12:44:38.009Z,15.80
2019-02-19T12:47:41.472Z,16.37
2019-02-19T12:50:44.871Z,14.37
2019-02-19T12:53:48.312Z,13.43
2019-02-19T12:56:51.751Z,15.10
2019-02-19T12:59:56.764Z,14.13
2019-02-19T13:03:00.281Z,11.90
2019-02-19T13:06:03.725Z,12.47
2019-02-19T13:09:07.143Z,14.07
2019-02-19T13:12:10.703Z,15.33
2019-02-19T13:15:19.040Z,12.70
2019-02-19T13:18:22.456Z,11.37
2019-02-19T13:21:25.907Z,13.17
2019-02-19T13:24:32.151Z,9.77
2019-02-19T13:27:37.499Z,10.40
2019-02-19T13:30:40.943Z,11.67
2019-02-19T13:33:44.435Z,13.70
2019-02-19T13:36:47.844Z,9.37
2019-02-19T13:39:52.149Z,10.50
2019-02-19T13:42:55.599Z,11.33
2019-02-19T13:45:59.028Z,8.50
2019-02-19T13:49:02.459Z,9.43
2019-02-19T13:52:07.544Z,9.77
2019-02-19T13:55:12.599Z,9.33
2019-02-19T13:58:16.031Z,6.93
2019-02-19T14:01:19.449Z,11.00
2019-02-19T14:04:22.880Z,8.13
2019-02-19T14:07:26.296Z,9.63
2019-02-19T14:10:29.733Z,9.33
2019-02-19T14:13:33.168Z,9.70
2019-02-19T14:16:38.216Z,9.13
2019-02-19T14:19:43.295Z,8.57
2019-02-19T14:22:48.368Z,8.80
2019-02-19T14:25:56.161Z,7.40
2019-02-19T14:29:01.228Z,9.17
2019-02-19T14:32:18.417Z,10.13
2019-02-19T14:35:26.432Z,8.90
2019-02-19T14:38:47.785Z,9.87
2019-02-19T14:41:55.807Z,7.80
2019-02-19T14:45:09.752Z,8.47
2019-02-19T14:48:31.029Z,8.20
2019-02-19T14:51:52.648Z,7.83
2019-02-19T14:55:09.965Z,11.60
2019-02-19T14:58:31.255Z,9.73
2019-02-19T15:01:51.659Z,7.60
2019-02-19T15:05:02.716Z,6.80
2019-02-19T15:08:13.763Z,8.43
2019-02-19T15:11:21.771Z,6.93
2019-02-19T15:14:26.850Z,8.27
2019-02-19T15:17:40.464Z,8.67
2019-02-19T15:20:45.536Z,7.40
2019-02-19T15:24:07.231Z,6.10
2019-02-19T15:27:12.295Z,8.43
2019-02-19T15:30:35.646Z,7.57
2019-02-19T15:33:43.629Z,10.17
2019-02-19T15:37:04.936Z,10.50
2019-02-19T15:40:12.756Z,12.07
2019-02-19T15:43:29.343Z,8.90
2019-02-19T15:46:49.623Z,9.90
2019-02-19T15:49:54.697Z,11.50
2019-02-19T15:53:14.836Z,10.83
2019-02-19T15:56:32.823Z,10.13
2019-02-19T15:59:55.872Z,10.23
2019-02-19T16:03:00.939Z,8.53
2019-02-19T16:06:08.638Z,10.17
2019-02-19T16:09:45.342Z,12.50
2019-02-19T16:13:07.117Z,10.07
2019-02-19T16:16:12.176Z,12.87
2019-02-19T16:19:33.673Z,9.40
2019-02-19T16:22:44.818Z,10.43
2019-02-19T16:26:06.200Z,9.37
2019-02-19T16:29:26.575Z,10.00
2019-02-19T16:32:31.628Z,10.57
2019-02-19T16:35:36.722Z,9.67
2019-02-19T16:38:44.683Z,9.93
2019-02-19T16:41:49.752Z,8.83
2019-02-19T16:45:00.780Z,10.43
2019-02-19T16:48:05.861Z,10.93
2019-02-19T16:51:10.913Z,12.13
2019-02-19T16:54:18.695Z,8.57
2019-02-19T16:57:35.695Z,11.43
2019-02-19T17:00:40.768Z,11.23
2019-02-19T17:03:45.832Z,12.73
2019-02-19T17:06:59.701Z,13.03
2019-02-19T17:10:04.760Z,11.63
2019-02-19T17:13:12.759Z,11.23
2019-02-19T17:16:17.813Z,11.77
2019-02-19T17:19:31.817Z,11.07
2019-02-19T17:22:46.200Z,11.93
2019-02-19T17:25:51.244Z,11.17
2019-02-19T17:28:59.322Z,12.50
2019-02-19T17:32:13.136Z,10.90
2019-02-19T17:35:27.338Z,10.40
2019-02-19T17:38:32.383Z,14.67
2019-02-19T17:41:41.352Z,9.10
2019-02-19T17:45:03.015Z,11.83
2019-02-19T17:48:14.266Z,9.07
2019-02-19T17:51:22.026Z,12.40
2019-02-19T17:54:27.088Z,10.80
2019-02-19T17:57:48.749Z,11.37
2019-02-19T18:00:53.820Z,9.07
2019-02-19T18:04:07.844Z,11.87
2019-02-19T18:07:21.708Z,8.97
2019-02-19T18:10:29.529Z,10.03
2019-02-19T18:13:37.547Z,11.03
2019-02-19T18:16:42.611Z,12.23
2019-02-19T18:19:46.033Z,11.30
2019-02-19T18:23:08.781Z,9.07
2019-02-19T18:26:12.216Z,8.87
2019-02-19T18:29:15.625Z,8.80
2019-02-19T18:32:19.088Z,9.97
2019-02-19T18:35:22.578Z,14.67
2019-02-19T18:38:26.020Z,10.10
2019-02-19T18:41:29.426Z,11.27
2019-02-19T18:44:32.854Z,13.70
2019-02-19T18:47:36.275Z,9.93
2019-02-19T18:50:39.704Z,10.30
2019-02-19T18:53:43.114Z,9.63
2019-02-19T18:56:46.553Z,9.53
2019-02-19T18:59:49.959Z,12.70
2019-02-19T19:02:53.387Z,8.30
2019-02-19T19:05:56.820Z,9.93
2019-02-19T19:09:00.232Z,10.40
2019-02-19T19:12:03.657Z,11.20
2019-02-19T19:15:09.333Z,10.10
2019-02-19T19:18:12.740Z,9.87
2019-02-19T19:21:16.168Z,8.80
2019-02-19T19:24:19.600Z,8.77
2019-02-19T19:27:23.031Z,9.97
2019-02-19T19:30:26.444Z,13.30
2019-02-19T19:33:29.873Z,8.57
2019-02-19T19:36:33.295Z,10.13
2019-02-19T19:39:36.741Z,8.77
2019-02-19T19:42:40.150Z,9.73
2019-02-19T19:45:43.595Z,9.90
2019-02-19T19:48:47.009Z,13.20
2019-02-19T19:51:50.452Z,10.80
2019-02-19T19:54:53.888Z,11.33
2019-02-19T19:57:57.333Z,12.37
2019-02-19T20:01:00.740Z,12.43
2019-02-19T20:04:04.248Z,13.13
2019-02-19T20:07:07.650Z,12.27
2019-02-19T20:10:12.828Z,10.50
2019-02-19T20:13:16.232Z,11.50
2019-02-19T20:16:19.680Z,11.20
2019-02-19T20:19:23.103Z,13.07
2019-02-19T20:22:26.558Z,10.83
2019-02-19T20:25:29.972Z,14.77
2019-02-19T20:28:33.405Z,13.80
2019-02-19T20:31:36.808Z,10.97
2019-02-19T20:34:40.244Z,12.27
2019-02-19T20:37:43.648Z,10.90
2019-02-19T20:40:47.084Z,11.67
2019-02-19T20:43:50.515Z,13.13
2019-02-19T20:46:53.928Z,12.63
2019-02-19T20:49:57.411Z,10.80
2019-02-19T20:53:00.878Z,13.90
2019-02-19T20:56:04.383Z,11.17
2019-02-19T20:59:07.797Z,13.47
2019-02-19T21:02:11.216Z,12.13
2019-02-19T21:05:14.666Z,16.70
2019-02-19T21:08:18.101Z,17.17
2019-02-19T21:11:21.525Z,15.37
2019-02-19T21:14:24.970Z,15.13
2019-02-19T21:17:28.391Z,14.97
2019-02-19T21:20:38.597Z,15.63
2019-02-19T21:23:42.039Z,14.87
2019-02-19T21:26:45.459Z,13.23
2019-02-19T21:29:48.884Z,15.77
2019-02-19T21:32:52.305Z,14.87
2019-02-19T21:35:57.882Z,14.40
2019-02-19T21:39:00.898Z,17.67
2019-02-19T21:42:04.340Z,14.07
2019-02-19T21:45:12.987Z,15.67
2019-02-19T21:48:16.415Z,13.67
2019-02-19T21:51:19.881Z,13.83
2019-02-19T21:54:23.320Z,15.60
2019-02-19T21:57:26.736Z,17.23
2019-02-19T22:00:30.189Z,14.40
2019-02-19T22:03:33.623Z,18.57
2019-02-19T22:06:37.044Z,16.83
2019-02-19T22:09:40.489Z,15.17
2019-02-19T22:12:43.901Z,18.10
2019-02-19T22:15:47.352Z,12.77
2019-02-19T22:18:50.768Z,18.07
2019-02-19T22:22:03.186Z,16.27
2019-02-19T22:25:00.998Z,16.93
2019-02-19T22:28:04.439Z,16.37
2019-02-19T22:31:07.851Z,19.43
2019-02-19T22:34:11.298Z,14.73
2019-02-19T22:37:14.848Z,17.23
2019-02-19T22:40:18.383Z,14.23
2019-02-19T22:43:21.985Z,19.73
2019-02-19T22:46:25.500Z,15.93
2019-02-19T22:49:28.911Z,13.20
2019-02-19T22:52:32.353Z,15.57
2019-02-19T22:55:37.401Z,14.33
2019-02-19T22:58:40.835Z,14.37
2019-02-19T23:01:47.223Z,15.00
2019-02-19T23:04:50.728Z,15.60
2019-02-19T23:07:54.151Z,18.33
2019-02-19T23:10:57.584Z,16.10
2019-02-19T23:14:00.996Z,17.70
2019-02-19T23:17:04.535Z,14.07
2019-02-19T23:20:07.944Z,17.57
2019-02-19T23:23:11.414Z,15.53
2019-02-19T23:26:14.836Z,14.03
2019-02-19T23:29:18.285Z,14.67
2019-02-19T23:32:21.700Z,15.93
2019-02-19T23:35:35.680Z,14.37
2019-02-19T23:38:39.093Z,16.77
2019-02-19T23:41:42.532Z,18.80
2019-02-19T23:44:45.936Z,15.20
2019-02-19T23:47:49.401Z,16.70
2019-02-19T23:50:52.817Z,18.47
2019-02-19T23:53:56.249Z,15.03
2019-02-19T23:56:59.696Z,14.50
